Time;durP1;ratioP1;P1;durP2;ratioP2;P2;SDS_P1;SDS_P2;PMS_P1;PMS_P2;Temp;Humidity;BMP_temperature;BMP_pressure;BME280_temperature;BME280_humidity;BME280_pressure;Samples;Min_cycle;Max_cycle;Signal;HPM_P1;HPM_P2
2022/09/17 00:01:56;;;;;;;7.30;0.90;;;;;;;9.24;83.63;99176.59;105899;1273;23039;-68
2022/09/17 00:04:27;;;;;;;4.30;0.70;;;;;;;9.22;83.55;99173.54;105707;1273;22544;-66
2022/09/17 00:06:58;;;;;;;3.70;0.80;;;;;;;9.20;83.61;99171.35;105835;1273;24426;-66
2022/09/17 00:09:30;;;;;;;3.50;0.70;;;;;;;9.19;83.64;99173.72;105961;1273;22532;-66
2022/09/17 00:12:01;;;;;;;6.80;1.00;;;;;;;9.16;83.49;99176.93;106028;1273;25241;-67
2022/09/17 00:14:33;;;;;;;6.70;1.10;;;;;;;9.13;83.48;99179.09;106098;1273;23247;-69
2022/09/17 00:17:03;;;;;;;4.40;0.80;;;;;;;9.13;83.57;99181.77;105871;1273;22581;-66
2022/09/17 00:19:34;;;;;;;4.40;0.80;;;;;;;9.11;83.53;99180.23;105765;1273;24295;-67
2022/09/17 00:22:06;;;;;;;9.10;0.80;;;;;;;9.06;83.57;99178.63;105677;1273;25407;-67
2022/09/17 00:24:37;;;;;;;4.40;0.80;;;;;;;9.03;83.51;99178.36;105661;1273;22555;-67
2022/09/17 00:27:08;;;;;;;6.00;0.80;;;;;;;9.00;83.44;99173.87;105655;1273;22521;-66
2022/09/17 00:29:40;;;;;;;5.10;0.70;;;;;;;8.97;83.48;99175.91;105640;1273;22554;-67
2022/09/17 00:32:10;;;;;;;5.00;0.80;;;;;;;8.94;83.44;99173.78;105745;1273;25354;-67
2022/09/17 00:34:42;;;;;;;6.90;0.80;;;;;;;8.92;83.59;99172.30;105578;1273;25395;-68
2022/09/17 00:37:13;;;;;;;5.00;0.90;;;;;;;8.91;83.52;99172.28;105657;1272;25376;-68
2022/09/17 00:39:44;;;;;;;6.20;0.80;;;;;;;8.91;83.69;99168.59;106081;1273;23964;-67
2022/09/17 00:42:16;;;;;;;4.30;0.80;;;;;;;8.91;83.58;99167.88;105648;1273;25266;-67
2022/09/17 00:44:51;;;;;;;6.80;0.70;;;;;;;8.91;83.63;99167.06;105666;1273;25420;-68
2022/09/17 00:47:28;;;;;;;5.00;0.80;;;;;;;8.91;83.55;99164.55;105783;1273;22529;-67
2022/09/17 00:50:05;;;;;;;3.50;0.70;;;;;;;8.91;83.51;99165.55;105653;1273;24345;-68
2022/09/17 00:52:41;;;;;;;4.40;0.90;;;;;;;8.90;83.52;99167.66;105665;1273;25424;-67
2022/09/17 00:55:17;;;;;;;3.50;0.70;;;;;;;8.90;83.65;99166.24;105688;1273;25088;-67
2022/09/17 00:57:52;;;;;;;3.80;0.70;;;;;;;8.90;83.45;99167.46;105715;1273;22546;-67
2022/09/17 01:00:23;;;;;;;6.30;0.70;;;;;;;8.90;83.55;99163.01;105862;1273;25227;-67
2022/09/17 01:02:55;;;;;;;7.90;0.70;;;;;;;8.87;83.71;99160.21;105669;1272;22572;-67
2022/09/17 01:05:32;;;;;;;6.30;0.80;;;;;;;8.86;83.51;99166.89;105575;1273;26382;-67
2022/09/17 01:08:16;;;;;;;5.60;0.70;;;;;;;8.85;83.59;99164.44;105843;1273;22532;-66
2022/09/17 01:11:12;;;;;;;5.60;0.70;;;;;;;8.82;83.63;99165.53;105640;1273;24296;-67
2022/09/17 01:14:00;;;;;;;6.00;1.00;;;;;;;8.79;83.63;99168.44;105641;1273;25313;-67
2022/09/17 01:16:41;;;;;;;8.00;1.00;;;;;;;8.77;83.69;99168.27;105638;1273;22560;-67
2022/09/17 01:19:39;;;;;;;5.90;0.70;;;;;;;8.75;84.10;99165.41;105595;1271;26762;-67
2022/09/17 01:22:19;;;;;;;6.80;0.80;;;;;;;8.74;83.97;99161.70;105627;1273;25258;-67
2022/09/17 01:25:01;;;;;;;;;;;;;;;8.73;83.89;99159.27;105710;1273;22532;-67
2022/09/17 01:28:14;;;;;;;2.30;0.60;;;;;;;8.72;83.99;99156.58;105611;1273;24392;-67
2022/09/17 01:31:18;;;;;;;8.40;0.80;;;;;;;8.70;83.85;99160.66;105681;1273;25414;-67
2022/09/17 01:34:01;;;;;;;7.30;1.10;;;;;;;8.68;84.00;99157.16;105708;1273;24451;-67
2022/09/17 01:36:48;;;;;;;3.30;0.60;;;;;;;8.67;84.07;99157.96;105719;1273;22551;-68
2022/09/17 01:39:33;;;;;;;4.10;0.70;;;;;;;8.64;84.23;99149.62;105620;1273;25326;-68
2022/09/17 01:42:14;;;;;;;8.20;0.80;;;;;;;8.63;84.33;99150.08;105580;1273;22998;-67
2022/09/17 01:44:48;;;;;;;;;;;;;;;8.62;84.22;99149.71;105674;1273;22524;-67
2022/09/17 01:47:24;;;;;;;6.00;0.70;;;;;;;8.63;84.36;99149.92;102219;1273;5431430;-68
2022/09/17 01:50:01;;;;;;;3.00;0.60;;;;;;;8.64;84.59;99148.52;105831;1273;25596;-66
2022/09/17 01:52:35;;;;;;;3.00;0.60;;;;;;;8.64;84.62;99148.27;105625;1273;25762;-68
2022/09/17 01:55:11;;;;;;;4.10;0.70;;;;;;;8.64;84.46;99146.10;105687;1273;22522;-68
2022/09/17 01:57:48;;;;;;;4.00;0.70;;;;;;;8.64;84.57;99147.96;105599;1273;22549;-68
2022/09/17 02:00:21;;;;;;;4.90;0.70;;;;;;;8.63;84.49;99149.20;105579;1273;23406;-67
2022/09/17 02:02:56;;;;;;;3.10;0.70;;;;;;;8.61;84.63;99145.66;105710;1273;22540;-66
2022/09/17 02:05:34;;;;;;;3.50;0.90;;;;;;;8.59;84.78;99146.20;105666;1273;24243;-67
2022/09/17 02:08:09;;;;;;;6.30;0.80;;;;;;;8.58;84.78;99146.44;105597;1273;22618;-69
2022/09/17 02:10:44;;;;;;;3.10;0.80;;;;;;;8.57;84.94;99145.98;105651;1272;22518;-67
2022/09/17 02:13:22;;;;;;;4.30;0.90;;;;;;;8.56;85.12;99145.61;105629;1273;23322;-68
2022/09/17 02:15:58;;;;;;;2.80;0.80;;;;;;;8.56;85.48;99144.09;105667;1273;25546;-68
2022/09/17 02:18:35;;;;;;;5.10;0.90;;;;;;;8.57;85.45;99148.91;105882;1273;22958;-67
2022/09/17 02:21:14;;;;;;;2.20;0.60;;;;;;;8.59;85.54;99146.35;105771;1272;22556;-69
2022/09/17 02:23:53;;;;;;;3.30;0.90;;;;;;;8.62;85.54;99148.25;105621;1273;22560;-68
2022/09/17 02:26:26;;;;;;;3.30;0.80;;;;;;;8.63;85.59;99141.42;105579;1273;22537;-66
2022/09/17 02:29:05;;;;;;;5.10;1.20;;;;;;;8.64;85.66;99143.11;105854;1273;24283;-67
2022/09/17 02:31:41;;;;;;;4.10;1.00;;;;;;;8.65;85.75;99145.49;105622;1273;22539;-67
2022/09/17 02:34:13;;;;;;;5.20;1.00;;;;;;;8.66;85.75;99142.77;105817;1273;25521;-67
2022/09/17 02:36:44;;;;;;;3.90;1.00;;;;;;;8.67;85.62;99140.96;105730;1273;25330;-68
2022/09/17 02:39:16;;;;;;;3.80;1.00;;;;;;;8.68;85.85;99142.34;105710;1273;22555;-67
2022/09/17 02:41:56;;;;;;;4.70;1.10;;;;;;;8.69;85.83;99142.85;105646;1273;22600;-71
2022/09/17 02:44:38;;;;;;;3.10;1.00;;;;;;;8.70;85.79;99136.84;105735;1273;24597;-70
2022/09/17 02:47:49;;;;;;;3.50;0.80;;;;;;;8.70;85.83;99132.14;105831;1273;25328;-68
2022/09/17 02:50:31;;;;;;;6.40;1.10;;;;;;;8.70;85.85;99123.32;105632;1273;25433;-67
2022/09/17 02:53:15;;;;;;;3.70;1.10;;;;;;;8.70;86.06;99126.02;105776;1273;25408;-68
2022/09/17 02:55:59;;;;;;;2.90;0.80;;;;;;;8.71;86.04;99123.54;105674;1273;22546;-67
2022/09/17 02:58:38;;;;;;;4.60;1.20;;;;;;;8.73;86.05;99120.38;105679;1273;22532;-67
2022/09/17 03:01:17;;;;;;;4.70;1.10;;;;;;;8.75;86.18;99122.91;105751;1273;22596;-68
2022/09/17 03:03:51;;;;;;;5.20;1.00;;;;;;;8.78;86.34;99120.00;105833;1273;24237;-68
2022/09/17 03:06:22;;;;;;;5.30;1.00;;;;;;;8.82;86.32;99119.90;105992;1273;25313;-68
2022/09/17 03:08:56;;;;;;;6.20;1.10;;;;;;;8.86;86.10;99125.84;105826;1273;22560;-68
2022/09/17 03:11:27;;;;;;;4.60;0.90;;;;;;;8.89;86.38;99125.77;105776;1273;24245;-67
2022/09/17 03:14:00;;;;;;;2.10;0.50;;;;;;;8.92;86.31;99121.48;105711;1273;22557;-67
2022/09/17 03:16:31;;;;;;;4.80;1.00;;;;;;;8.97;86.41;99125.41;105713;1273;24451;-68
2022/09/17 03:19:04;;;;;;;3.50;0.80;;;;;;;9.02;86.36;99126.05;105750;1273;22577;-67
2022/09/17 03:21:36;;;;;;;3.70;0.90;;;;;;;9.06;86.47;99128.27;105727;1273;22574;-69
2022/09/17 03:24:07;;;;;;;4.00;0.90;;;;;;;9.11;86.74;99131.23;105643;1273;22756;-68
2022/09/17 03:26:39;;;;;;;7.30;0.90;;;;;;;9.15;86.68;99128.47;105818;1273;24240;-68
2022/09/17 03:29:10;;;;;;;3.40;0.90;;;;;;;9.19;86.65;99126.38;105878;1273;24575;-67
2022/09/17 03:31:41;;;;;;;8.00;0.70;;;;;;;9.23;86.75;99119.38;105975;1273;22622;-67
2022/09/17 03:34:12;;;;;;;5.50;0.70;;;;;;;9.26;86.91;99121.86;105662;1273;22595;-67
2022/09/17 03:36:43;;;;;;;3.60;0.80;;;;;;;9.30;86.81;99125.28;105797;1273;25260;-67
2022/09/17 03:39:14;;;;;;;4.70;0.80;;;;;;;9.33;86.82;99127.02;105604;1273;24041;-68
2022/09/17 03:41:44;;;;;;;4.30;0.70;;;;;;;9.37;86.78;99133.73;105598;1273;23091;-68
2022/09/17 03:44:17;;;;;;;5.30;0.80;;;;;;;9.39;86.82;99137.70;105645;1273;22621;-68
2022/09/17 03:46:48;;;;;;;4.10;0.80;;;;;;;9.42;87.04;99140.40;105676;1273;22535;-66
2022/09/17 03:49:19;;;;;;;6.10;1.40;;;;;;;9.43;87.09;99143.23;105811;1273;25555;-65
2022/09/17 03:51:50;;;;;;;5.50;1.00;;;;;;;9.45;86.89;99139.50;105828;1273;22560;-67
2022/09/17 03:54:21;;;;;;;4.10;0.70;;;;;;;9.45;87.09;99139.46;105718;1273;22570;-67
2022/09/17 03:56:53;;;;;;;3.20;0.80;;;;;;;9.47;87.21;99137.84;105850;1273;22611;-67
2022/09/17 03:59:24;;;;;;;5.70;1.00;;;;;;;9.49;87.21;99138.98;105981;1273;22626;-67
2022/09/17 04:01:56;;;;;;;5.10;0.90;;;;;;;9.50;87.50;99136.59;106390;1273;25325;-67
2022/09/17 04:04:27;;;;;;;3.30;0.70;;;;;;;9.51;87.29;99133.10;106185;1272;25373;-67
2022/09/17 04:06:58;;;;;;;3.80;0.80;;;;;;;9.52;87.51;99131.44;105657;1273;22544;-67
2022/09/17 04:09:30;;;;;;;3.50;0.90;;;;;;;9.53;87.53;99128.96;106011;1273;22532;-67
2022/09/17 04:12:02;;;;;;;6.20;0.80;;;;;;;9.54;87.67;99127.34;105818;1273;25387;-67
2022/09/17 04:14:33;;;;;;;4.90;0.50;;;;;;;9.56;87.58;99129.02;105857;1273;26615;-67
2022/09/17 04:17:04;;;;;;;3.20;0.70;;;;;;;9.58;87.68;99125.14;105700;1273;24248;-67
2022/09/17 04:19:35;;;;;;;4.90;0.90;;;;;;;9.60;87.63;99124.49;105727;1273;22534;-67
2022/09/17 04:22:06;;;;;;;4.70;0.80;;;;;;;9.61;87.64;99125.17;105891;1273;23967;-68
2022/09/17 04:24:39;;;;;;;6.30;0.80;;;;;;;9.63;87.56;99123.30;105879;1273;25357;-69
2022/09/17 04:27:10;;;;;;;3.90;1.30;;;;;;;9.65;87.56;99122.64;105872;1273;22688;-68
2022/09/17 04:29:42;;;;;;;4.50;0.80;;;;;;;9.66;87.80;99125.23;105754;1273;23231;-68
2022/09/17 04:32:13;;;;;;;7.30;1.00;;;;;;;9.68;87.73;99127.27;105811;1273;24417;-67
2022/09/17 04:34:44;;;;;;;7.90;1.10;;;;;;;9.70;87.66;99122.77;105839;1273;25252;-68
2022/09/17 04:37:18;;;;;;;5.60;0.80;;;;;;;9.71;87.83;99121.70;105779;1273;26309;-67
2022/09/17 04:39:51;;;;;;;4.20;0.70;;;;;;;9.72;87.66;99118.06;105936;1273;22614;-68
2022/09/17 04:42:22;;;;;;;6.20;0.70;;;;;;;9.73;87.66;99118.16;105752;1273;24425;-68
2022/09/17 04:44:53;;;;;;;7.30;1.50;;;;;;;9.74;87.71;99122.78;105594;1273;24236;-67
2022/09/17 04:47:25;;;;;;;8.70;1.00;;;;;;;9.75;87.55;99123.80;105699;1273;25271;-68
2022/09/17 04:49:56;;;;;;;4.30;1.00;;;;;;;9.78;87.81;99127.46;105937;1273;26268;-67
2022/09/17 04:52:27;;;;;;;5.90;0.80;;;;;;;9.79;87.66;99136.99;105730;1273;22582;-68
2022/09/17 04:54:58;;;;;;;4.30;1.30;;;;;;;9.81;87.81;99136.19;105688;1273;23113;-69
2022/09/17 04:57:29;;;;;;;5.00;0.90;;;;;;;9.83;87.76;99133.05;105676;1273;22557;-67
2022/09/17 05:00:00;;;;;;;7.20;0.80;;;;;;;9.84;87.65;99140.92;105758;1273;22552;-68
2022/09/17 05:02:33;;;;;;;3.30;0.70;;;;;;;9.86;87.69;99139.30;106053;1273;22718;-68
2022/09/17 05:05:04;;;;;;;4.10;1.00;;;;;;;9.87;87.65;99135.76;105624;1273;22529;-67
2022/09/17 05:07:37;;;;;;;3.90;1.00;;;;;;;9.88;87.62;99140.23;106097;1273;25366;-68
2022/09/17 05:10:11;;;;;;;4.90;0.70;;;;;;;9.90;87.67;99140.58;105801;1273;24438;-69
2022/09/17 05:12:47;;;;;;;4.30;0.90;;;;;;;9.92;87.74;99137.04;106173;1273;24211;-67
2022/09/17 05:15:19;;;;;;;3.20;0.90;;;;;;;9.95;87.72;99140.20;105899;1273;25536;-67
2022/09/17 05:17:51;;;;;;;3.80;0.60;;;;;;;9.97;87.78;99136.05;105927;1273;22490;-66
2022/09/17 05:20:22;;;;;;;2.70;0.60;;;;;;;10.00;87.73;99128.36;105698;1273;25453;-67
2022/09/17 05:22:55;;;;;;;6.70;0.90;;;;;;;10.03;87.67;99132.12;105960;1273;22615;-68
2022/09/17 05:25:29;;;;;;;3.70;0.60;;;;;;;10.06;87.49;99127.88;105832;1273;25319;-67
2022/09/17 05:28:01;;;;;;;5.70;0.90;;;;;;;10.09;87.69;99128.13;105858;1273;25676;-68
2022/09/17 05:30:32;;;;;;;4.20;0.70;;;;;;;10.12;87.27;99129.80;105782;1273;22557;-68
2022/09/17 05:33:05;;;;;;;7.80;0.80;;;;;;;10.16;87.51;99127.52;106280;1273;22554;-68
2022/09/17 05:35:37;;;;;;;3.00;0.70;;;;;;;10.20;87.24;99130.07;105869;1273;22573;-67
2022/09/17 05:38:09;;;;;;;4.30;0.80;;;;;;;10.23;87.33;99127.99;105628;1273;25545;-67
2022/09/17 05:40:40;;;;;;;7.20;0.70;;;;;;;10.26;87.22;99124.41;105610;1273;25327;-69
2022/09/17 05:43:12;;;;;;;3.70;0.80;;;;;;;10.30;87.21;99125.98;105858;1273;22878;-69
2022/09/17 05:45:44;;;;;;;6.50;0.70;;;;;;;10.34;87.00;99127.33;105729;1273;24262;-69
2022/09/17 05:48:16;;;;;;;5.10;0.70;;;;;;;10.37;86.98;99126.86;105894;1273;22553;-68
2022/09/17 05:50:47;;;;;;;6.50;0.80;;;;;;;10.40;87.10;99125.90;105793;1273;25488;-68
2022/09/17 05:53:18;;;;;;;5.40;0.80;;;;;;;10.45;86.85;99121.44;105884;1273;25465;-70
2022/09/17 05:55:49;;;;;;;6.20;0.80;;;;;;;10.48;86.91;99122.58;105533;1273;22596;-68
2022/09/17 05:58:26;;;;;;;2.80;0.70;;;;;;;10.51;86.87;99121.45;105670;1273;22678;-68
2022/09/17 06:01:00;;;;;;;8.90;0.90;;;;;;;10.54;86.83;99126.44;105858;1273;22534;-67
2022/09/17 06:03:31;;;;;;;9.20;0.90;;;;;;;10.58;86.92;99126.38;105825;1273;22659;-68
2022/09/17 06:06:02;;;;;;;7.10;1.00;;;;;;;10.62;86.93;99129.28;105662;1273;22695;-67
2022/09/17 06:08:36;;;;;;;6.60;1.00;;;;;;;10.65;86.85;99128.16;105684;1273;22562;-69
2022/09/17 06:11:09;;;;;;;7.80;1.00;;;;;;;10.68;86.93;99126.85;105762;1273;22572;-68
2022/09/17 06:13:42;;;;;;;8.30;1.00;;;;;;;10.70;86.75;99130.42;105781;1273;23320;-69
2022/09/17 06:16:13;;;;;;;8.90;1.30;;;;;;;10.74;86.60;99130.00;106002;1273;24367;-67
2022/09/17 06:18:44;;;;;;;6.40;1.00;;;;;;;10.77;86.77;99138.17;105769;1273;22612;-69
2022/09/17 06:21:16;;;;;;;5.40;0.90;;;;;;;10.79;86.82;99143.81;105548;1273;25384;-69
2022/09/17 06:23:47;;;;;;;10.00;0.90;;;;;;;10.82;86.59;99146.05;105656;1273;25523;-68
2022/09/17 06:26:19;;;;;;;6.50;1.40;;;;;;;10.85;86.55;99141.33;105856;1273;24416;-69
2022/09/17 06:28:50;;;;;;;7.00;0.90;;;;;;;10.88;86.49;99150.01;105610;1273;22549;-68
2022/09/17 06:31:21;;;;;;;6.70;0.80;;;;;;;10.91;86.33;99156.36;105398;1273;25533;-69
2022/09/17 06:33:52;;;;;;;6.00;1.30;;;;;;;10.93;86.42;99157.11;105445;1273;22569;-67
2022/09/17 06:36:23;;;;;;;5.40;1.10;;;;;;;10.95;86.41;99162.60;105682;1273;25469;-67
2022/09/17 06:38:54;;;;;;;6.30;0.90;;;;;;;10.98;86.16;99164.88;105770;1273;24308;-67
2022/09/17 06:41:26;;;;;;;5.10;1.20;;;;;;;11.01;86.13;99168.74;105705;1273;25321;-68
2022/09/17 06:43:57;;;;;;;7.20;1.30;;;;;;;11.04;86.10;99173.42;105671;1273;25270;-67
2022/09/17 06:46:30;;;;;;;6.10;1.10;;;;;;;11.05;86.05;99177.83;105822;1273;22597;-66
2022/09/17 06:49:12;;;;;;;6.40;1.00;;;;;;;11.08;85.98;99178.86;105698;1274;23185;-66
2022/09/17 06:51:47;;;;;;;6.80;1.00;;;;;;;11.09;85.77;99177.88;106143;1273;22556;-67
2022/09/17 06:54:19;;;;;;;3.90;1.00;;;;;;;11.12;85.97;99184.09;106983;1273;22703;-67
2022/09/17 06:56:50;;;;;;;8.90;1.20;;;;;;;11.13;85.97;99181.39;105602;1274;22559;-67
2022/09/17 06:59:22;;;;;;;8.00;0.90;;;;;;;11.16;86.20;99183.02;105572;1273;22548;-67
2022/09/17 07:01:53;;;;;;;6.40;1.20;;;;;;;11.19;86.17;99180.92;106150;1273;25320;-66
2022/09/17 07:04:24;;;;;;;11.30;1.30;;;;;;;11.21;85.81;99181.63;105854;1274;22571;-67
2022/09/17 07:06:56;;;;;;;9.20;1.10;;;;;;;11.23;85.88;99186.66;105612;1274;22705;-66
2022/09/17 07:09:27;;;;;;;4.40;0.90;;;;;;;11.25;85.89;99187.11;105730;1274;25260;-68
2022/09/17 07:11:59;;;;;;;8.20;1.00;;;;;;;11.27;85.64;99186.45;105618;1273;22553;-68
2022/09/17 07:14:30;;;;;;;4.40;0.80;;;;;;;11.29;85.74;99194.13;105588;1273;24366;-67
2022/09/17 07:17:02;;;;;;;3.90;0.90;;;;;;;11.31;85.52;99190.27;105796;1273;25379;-67
2022/09/17 07:19:33;;;;;;;6.50;1.00;;;;;;;11.34;85.86;99188.80;106327;1273;22579;-68
2022/09/17 07:22:04;;;;;;;4.90;0.90;;;;;;;11.37;85.28;99186.09;106160;1274;24268;-68
2022/09/17 07:24:36;;;;;;;7.30;1.10;;;;;;;11.42;85.32;99184.88;106182;1273;25488;-67
2022/09/17 07:27:07;;;;;;;7.80;1.20;;;;;;;11.46;85.10;99177.24;106132;1273;26469;-68
2022/09/17 07:29:40;;;;;;;7.80;1.60;;;;;;;11.50;85.27;99177.80;106187;1273;22564;-67
2022/09/17 07:32:11;;;;;;;7.20;1.10;;;;;;;11.54;85.47;99183.11;106402;1274;22669;-67
2022/09/17 07:34:42;;;;;;;6.90;1.20;;;;;;;11.59;85.21;99189.98;106184;1274;22547;-69
2022/09/17 07:37:13;;;;;;;7.60;1.40;;;;;;;11.63;85.36;99188.59;106227;1274;22580;-70
2022/09/17 07:39:45;;;;;;;8.60;1.50;;;;;;;11.68;84.72;99191.56;106158;1274;22688;-69
2022/09/17 07:42:16;;;;;;;10.50;1.40;;;;;;;11.72;84.93;99198.25;106270;1273;22534;-70
2022/09/17 07:44:47;;;;;;;6.00;1.00;;;;;;;11.76;84.50;99206.17;106304;1273;22518;-69
2022/09/17 07:47:18;;;;;;;9.20;1.10;;;;;;;11.79;84.63;99217.87;106275;1273;25385;-69
2022/09/17 07:49:50;;;;;;;8.70;1.10;;;;;;;11.82;84.68;99220.05;106243;1274;24338;-70
2022/09/17 07:52:21;;;;;;;7.70;1.20;;;;;;;11.87;84.74;99218.71;106258;1274;22547;-69
2022/09/17 07:54:52;;;;;;;7.70;1.30;;;;;;;11.89;84.31;99218.30;106130;1274;22552;-69
2022/09/17 07:57:24;;;;;;;5.00;0.90;;;;;;;11.93;84.09;99213.65;106233;1274;23502;-71
2022/09/17 07:59:56;;;;;;;6.90;1.10;;;;;;;11.96;83.88;99215.06;106246;1275;22709;-70
2022/09/17 08:02:28;;;;;;;4.30;0.90;;;;;;;12.00;84.19;99215.27;106196;1275;22563;-71
2022/09/17 08:05:00;;;;;;;6.30;1.10;;;;;;;12.05;84.23;99216.73;106231;1274;25257;-71
2022/09/17 08:07:31;;;;;;;5.90;1.00;;;;;;;12.10;84.08;99217.36;106322;1273;22675;-70
2022/09/17 08:10:02;;;;;;;6.40;1.10;;;;;;;12.16;84.24;99221.57;105858;1273;25394;-70
2022/09/17 08:12:33;;;;;;;9.80;1.50;;;;;;;12.24;84.16;99221.59;106283;1274;22854;-71
2022/09/17 08:15:05;;;;;;;11.80;1.10;;;;;;;12.29;84.16;99213.27;105794;1274;25452;-68
2022/09/17 08:17:40;;;;;;;6.10;1.10;;;;;;;12.33;83.91;99214.68;105818;1274;25490;-69
2022/09/17 08:20:13;;;;;;;7.40;1.00;;;;;;;12.35;83.43;99216.31;106035;1274;22537;-69
2022/09/17 08:22:45;;;;;;;11.40;1.40;;;;;;;12.37;83.12;99211.87;105806;1274;22707;-70
2022/09/17 08:25:17;;;;;;;7.50;1.20;;;;;;;12.37;83.05;99212.13;106976;1273;23697;-69
2022/09/17 08:27:49;;;;;;;5.80;1.10;;;;;;;12.39;83.21;99218.94;105871;1274;22706;-68
2022/09/17 08:30:20;;;;;;;10.80;2.10;;;;;;;12.42;83.09;99214.19;105823;1274;22626;-67
2022/09/17 08:32:55;;;;;;;14.40;3.20;;;;;;;12.44;82.99;99223.13;105913;1274;22516;-67
2022/09/17 08:35:26;;;;;;;7.70;1.40;;;;;;;12.45;82.61;99222.27;105879;1274;24440;-68
2022/09/17 08:37:58;;;;;;;10.10;1.30;;;;;;;12.45;82.77;99220.13;105770;1274;24331;-67
2022/09/17 08:40:39;;;;;;;4.90;1.00;;;;;;;12.45;82.63;99221.45;105793;1274;22546;-67
2022/09/17 08:43:17;;;;;;;8.50;0.90;;;;;;;12.46;82.74;99223.83;105670;1274;26474;-67
2022/09/17 08:45:55;;;;;;;11.10;1.20;;;;;;;12.48;82.44;99219.60;105894;1274;22555;-67
2022/09/17 08:48:31;;;;;;;4.10;0.90;;;;;;;12.51;82.34;99207.98;106104;1274;26731;-67
2022/09/17 08:51:07;;;;;;;3.50;0.90;;;;;;;12.53;82.53;99211.38;105880;1274;22599;-68
2022/09/17 08:53:54;;;;;;;6.00;1.00;;;;;;;12.57;82.21;99214.88;105929;1275;24540;-67
2022/09/17 08:56:27;;;;;;;5.50;1.10;;;;;;;12.61;82.45;99205.73;105739;1274;25403;-67
2022/09/17 08:59:19;;;;;;;5.70;1.00;;;;;;;12.66;82.27;99202.14;105817;1274;24309;-68
2022/09/17 09:01:59;;;;;;;6.70;1.30;;;;;;;12.73;82.28;99206.73;105619;1274;22566;-67
2022/09/17 09:04:55;;;;;;;7.40;1.00;;;;;;;12.77;82.04;99201.71;105874;1274;25271;-68
2022/09/17 09:07:32;;;;;;;6.80;1.20;;;;;;;12.83;82.06;99195.05;105990;1273;22567;-67
2022/09/17 09:10:14;;;;;;;7.00;1.30;;;;;;;12.87;81.94;99199.25;106137;1274;22701;-67
2022/09/17 09:12:46;;;;;;;6.80;1.10;;;;;;;12.93;81.85;99200.69;105756;1274;24265;-67
2022/09/17 09:15:45;;;;;;;5.30;0.80;;;;;;;13.00;82.05;99205.78;105840;1274;24281;-67
2022/09/17 09:18:20;;;;;;;9.60;1.60;;;;;;;13.07;81.84;99207.19;106006;1273;25933;-66
2022/09/17 09:20:54;;;;;;;4.50;1.00;;;;;;;13.12;81.71;99207.56;105853;1274;25311;-66
2022/09/17 09:23:35;;;;;;;6.30;1.40;;;;;;;13.18;81.43;99213.11;106011;1274;22535;-69
2022/09/17 09:26:16;;;;;;;6.70;1.10;;;;;;;13.21;80.83;99214.16;105662;1274;23528;-71
2022/09/17 09:29:16;;;;;;;4.20;1.00;;;;;;;13.22;80.97;99227.20;105768;1274;24423;-70
2022/09/17 09:32:02;;;;;;;7.40;1.20;;;;;;;13.21;80.86;99244.89;105979;1274;25330;-68
2022/09/17 09:34:36;;;;;;;6.40;1.30;;;;;;;13.19;80.35;99256.31;105325;1274;24148;-71
2022/09/17 09:37:16;;;;;;;3.60;1.20;;;;;;;13.15;80.41;99256.39;105677;1274;25331;-72
2022/09/17 09:39:51;;;;;;;9.50;1.50;;;;;;;13.13;80.25;99263.65;105762;1274;22546;-67
2022/09/17 09:42:31;;;;;;;7.10;1.40;;;;;;;13.11;80.16;99275.33;105549;1274;22559;-67
2022/09/17 09:45:13;;;;;;;11.10;1.70;;;;;;;13.10;80.25;99276.46;105625;1274;22563;-71
2022/09/17 09:47:59;;;;;;;6.90;1.30;;;;;;;13.11;80.27;99270.74;105815;1274;22696;-72
2022/09/17 09:50:39;;;;;;;5.10;1.60;;;;;;;13.10;80.03;99267.27;105931;1274;22566;-70
2022/09/17 09:53:25;;;;;;;5.80;1.70;;;;;;;13.11;80.31;99277.92;105924;1273;22557;-67
2022/09/17 09:56:10;;;;;;;6.70;1.50;;;;;;;13.14;80.42;99284.38;105516;1273;25453;-67
2022/09/17 09:58:43;;;;;;;5.00;1.40;;;;;;;13.13;80.32;99278.88;105866;1274;22536;-67
2022/09/17 10:01:19;;;;;;;8.70;1.40;;;;;;;13.13;80.33;99271.85;105929;1274;22538;-67
2022/09/17 10:03:54;;;;;;;6.20;1.40;;;;;;;13.14;80.15;99270.00;105813;1274;25475;-67
2022/09/17 10:06:30;;;;;;;9.90;1.80;;;;;;;13.14;79.81;99272.35;106599;1274;23027;-66
2022/09/17 10:09:16;;;;;;;6.70;1.40;;;;;;;13.16;79.99;99276.30;105446;1274;23142;-66
2022/09/17 10:12:02;;;;;;;8.90;1.80;;;;;;;13.20;79.98;99270.98;105638;1274;25363;-67
2022/09/17 10:14:35;;;;;;;6.50;1.30;;;;;;;13.21;79.91;99272.25;105957;1273;25510;-67
2022/09/17 10:17:20;;;;;;;4.90;1.40;;;;;;;13.23;79.77;99276.82;105952;1273;23952;-68
2022/09/17 10:20:14;;;;;;;7.80;1.50;;;;;;;13.25;79.84;99276.75;105762;1274;25394;-68
2022/09/17 10:22:46;;;;;;;4.80;1.30;;;;;;;13.28;79.53;99274.55;105374;1278;23568;-69
2022/09/17 10:25:34;;;;;;;6.30;1.60;;;;;;;13.27;79.55;99269.86;105603;1278;22549;-68
2022/09/17 10:28:29;;;;;;;4.20;1.40;;;;;;;13.29;79.61;99264.05;105506;1278;23602;-70
2022/09/17 10:31:02;;;;;;;6.20;2.20;;;;;;;13.31;79.03;99261.36;105400;1277;24464;-68
2022/09/17 10:33:35;;;;;;;5.50;1.50;;;;;;;13.32;79.07;99267.59;105493;1278;22506;-70
2022/09/17 10:36:09;;;;;;;6.90;1.70;;;;;;;13.38;79.44;99273.76;105572;1277;22545;-68
2022/09/17 10:38:42;;;;;;;5.10;1.20;;;;;;;13.48;79.82;99273.00;105670;1277;23983;-68
2022/09/17 10:41:16;;;;;;;5.10;1.50;;;;;;;13.56;78.79;99273.90;105510;1278;24110;-68
2022/09/17 10:43:51;;;;;;;6.30;1.50;;;;;;;13.57;78.41;99270.78;105577;1278;22864;-70
2022/09/17 10:46:29;;;;;;;4.20;1.30;;;;;;;13.57;78.76;99275.29;105526;1277;25389;-68
2022/09/17 10:49:11;;;;;;;6.90;1.30;;;;;;;13.61;79.04;99275.14;105485;1278;22557;-68
2022/09/17 10:51:42;;;;;;;6.00;1.60;;;;;;;13.61;78.44;99275.55;105537;1277;23200;-69
2022/09/17 10:54:49;;;;;;;6.00;1.30;;;;;;;13.58;78.34;99277.72;105417;1277;22717;-70
2022/09/17 10:57:31;;;;;;;5.20;1.20;;;;;;;13.54;78.09;99277.03;105385;1277;24440;-68
2022/09/17 11:00:12;;;;;;;5.50;1.00;;;;;;;13.48;78.29;99276.84;105844;1273;24248;-70
2022/09/17 11:03:32;;;;;;;7.00;1.10;;;;;;;13.45;78.36;99279.61;105932;1273;27066;-67
2022/09/17 11:06:22;;;;;;;5.50;0.90;;;;;;;13.39;78.29;99275.79;105840;1273;22604;-69
2022/09/17 11:09:08;;;;;;;3.20;0.80;;;;;;;13.34;78.50;99276.23;106035;1273;22600;-66
2022/09/17 11:11:53;;;;;;;2.70;0.70;;;;;;;13.33;78.78;99272.11;105662;1273;25278;-67
2022/09/17 11:14:41;;;;;;;6.60;0.80;;;;;;;13.37;78.68;99266.87;105695;1273;24158;-67
2022/09/17 11:17:36;;;;;;;5.00;0.90;;;;;;;13.46;79.15;99256.19;105965;1273;22557;-72
2022/09/17 11:20:20;;;;;;;2.50;0.80;;;;;;;13.58;78.87;99257.22;106327;1273;22566;-67
2022/09/17 11:23:03;;;;;;;4.60;0.90;;;;;;;13.72;78.91;99252.75;105835;1273;26030;-65
2022/09/17 11:25:53;;;;;;;3.10;0.70;;;;;;;13.88;78.73;99257.14;106480;1273;24321;-66
2022/09/17 11:28:42;;;;;;;3.20;0.80;;;;;;;14.01;78.22;99252.92;105713;1273;22541;-66
2022/09/17 11:31:27;;;;;;;2.50;0.60;;;;;;;14.11;78.17;99249.09;106157;1273;24289;-68
2022/09/17 11:34:16;;;;;;;3.00;0.70;;;;;;;14.16;77.45;99246.08;105895;1273;22557;-66
2022/09/17 11:36:55;;;;;;;3.30;0.70;;;;;;;14.18;77.49;99244.48;106359;1273;24344;-66
2022/09/17 11:39:33;;;;;;;3.10;0.60;;;;;;;14.21;77.24;99243.61;105848;1273;22571;-68
2022/09/17 11:42:11;;;;;;;4.90;1.10;;;;;;;14.26;76.91;99235.80;105860;1273;22601;-66
2022/09/17 11:44:51;;;;;;;8.90;3.10;;;;;;;14.30;76.81;99232.00;106312;1273;22681;-67
2022/09/17 11:47:32;;;;;;;14.50;6.10;;;;;;;14.34;76.33;99234.16;106142;1273;26605;-67
2022/09/17 11:50:11;;;;;;;10.50;2.60;;;;;;;14.36;76.26;99238.98;106274;1273;22760;-67
2022/09/17 11:52:59;;;;;;;14.00;3.30;;;;;;;14.38;76.35;99241.77;105922;1273;23013;-66
2022/09/17 11:55:39;;;;;;;13.40;3.30;;;;;;;14.42;76.64;99232.56;107197;1274;168661;-66
2022/09/17 11:58:22;;;;;;;15.10;3.40;;;;;;;14.51;76.12;99231.70;106100;1274;22670;-66
2022/09/17 12:01:02;;;;;;;14.00;3.60;;;;;;;14.56;75.62;99232.79;106112;1274;22878;-66
2022/09/17 12:03:43;;;;;;;12.40;2.80;;;;;;;14.63;75.14;99226.36;105982;1274;25322;-65
2022/09/17 12:06:26;;;;;;;7.00;1.40;;;;;;;14.67;74.97;99221.02;105791;1274;22710;-66
2022/09/17 12:09:03;;;;;;;6.40;0.80;;;;;;;14.66;74.88;99211.93;105864;1274;24316;-66
2022/09/17 12:11:42;;;;;;;2.50;0.60;;;;;;;14.65;74.71;99213.44;105747;1274;26626;-66